CheckWX is a tool to help pilots better visualize weather data.  It is not intended as a substitute for an official pre-flight weather briefing.

09:26:58 UTC

9D7 METAR
Cando Municipal Airport
Cando, North Dakota, USA
Current

32 mins ago

K9D7 200855Z AUTO 12006KT 10SM FEW003 FEW017 M22/M24 A2994 RMK AO2
Observed
Feb-20 @ 08:55 UTC
Wind
  • 120° at 6 KTS
Visibility
16,093 meters
Flight Rules
VFR
Cloud Levels
  • Few at 300' AGL
  • Few at 1,700' AGL
Temperature
-22°C / -8°F
Dewpoint
-24°C / -11°F
Humidity
84%
Altimeter
29.94" Hg
Pressure
1013.92 hPa
Previous

52 mins ago

K9D7 200835Z AUTO 13006KT 10SM SCT017 M23/M24 A2995 RMK AO2
Observed
Feb-20 @ 08:35 UTC
Wind
  • 130° at 6 KTS
Visibility
16,093 meters
Flight Rules
VFR
Cloud Levels
  • Scattered at 1,700' AGL
Temperature
-23°C / -9°F
Dewpoint
-24°C / -11°F
Humidity
92%
Altimeter
29.95" Hg
Pressure
1014.22 hPa
Previous

1 hour ago

K9D7 200815Z AUTO 13006KT 10SM CLR M23/M25 A2996 RMK AO2
Observed
Feb-20 @ 08:15 UTC
Wind
  • 130° at 6 KTS
Visibility
16,093 meters
Flight Rules
VFR
Cloud Levels
  • Clear skies
Temperature
-23°C / -9°F
Dewpoint
-25°C / -13°F
Humidity
84%
Altimeter
29.96" Hg
Pressure
1014.52 hPa